Portada
METAR-TAF:

METAR-TAF

Aeropuertos :

Chicago Executive Airport

Wheeling / Prospect Heights, Illinois, Estados Unidos

latitud: 42-07-15N, longitud: 087-54-17W, altitud: 197 m

Observación

El informe se hizo hace 1 hora y 13 minutos, a las 18:52 UTC
Viento 12 kt del oeste-suroeste con ráfagas de 26 kt
Temperatura 33°C
Humedad 41%
Presión 1022 hPa
Visibilidad: 16.1 km
Nubes dispersas a una altura de 6000 ft
Nubes dispersas a una altura de 7000 ft

METAR: KPWK 191852Z 24012G26KT 10SM SCT060 SCT070 33/18 A3019 RMK AO2 PK WND 25026/1851 SLP218 T03280183 $

Hora: 15:05 (20:05 UTC)


TAF: falta

Observaciones y pronósticos meteorológicos de más de 4000 aeropuertos (mensajes METAR y TAF).

Los puntos amarillos y rojos representan las estaciones disponibles.

Ponga el ratón en el punto deseado para ver el nombre de la estación.

Haga clic para ver las observaciones y los pronósticos meteorológicos.

Para cambiar el mapa : haga clic en los botones verdes con una cruz de color negro para hacer un zoom, en el botón verde con un guión para alejar o en las flechas verdes para mapas adyacentes.


METAR-TAF: